createdAt,value
2023-05-20T00:02:19.902Z,60.20
2023-05-20T00:04:56.503Z,60.40
2023-05-20T00:07:23.991Z,60.50
2023-05-20T00:09:53.989Z,60.60
2023-05-20T00:12:21.758Z,60.70
2023-05-20T00:14:49.125Z,60.90
2023-05-20T00:17:16.625Z,60.80
2023-05-20T00:19:44.028Z,61.10
2023-05-20T00:22:11.644Z,61.10
2023-05-20T00:24:39.084Z,61.40
2023-05-20T00:27:06.654Z,61.20
2023-05-20T00:29:34.948Z,61.40
2023-05-20T00:32:02.368Z,61.40
2023-05-20T00:34:32.686Z,61.50
2023-05-20T00:37:05.379Z,61.60
2023-05-20T00:39:32.900Z,61.60
2023-05-20T00:42:02.739Z,61.80
2023-05-20T00:44:32.667Z,61.90
2023-05-20T00:47:00.131Z,61.80
2023-05-20T00:49:27.547Z,61.90
2023-05-20T00:52:02.086Z,61.90
2023-05-20T00:54:34.187Z,61.90
2023-05-20T00:57:03.411Z,61.80
2023-05-20T00:59:36.165Z,62.00
2023-05-20T01:02:10.874Z,62.10
2023-05-20T01:04:38.568Z,62.20
2023-05-20T01:07:16.491Z,62.20
2023-05-20T01:09:49.338Z,62.50
2023-05-20T01:12:45.337Z,62.80
2023-05-20T01:15:18.371Z,63.10
2023-05-20T01:17:47.636Z,63.20
2023-05-20T01:20:16.118Z,63.40
2023-05-20T01:22:58.572Z,63.70
2023-05-20T01:25:26.824Z,63.80
2023-05-20T01:27:56.535Z,63.80
2023-05-20T01:30:28.381Z,63.80
2023-05-20T01:33:02.966Z,64.00
2023-05-20T01:35:31.037Z,64.00
2023-05-20T01:37:59.739Z,64.10
2023-05-20T01:40:30.294Z,64.30
2023-05-20T01:42:59.340Z,64.50
2023-05-20T01:45:26.800Z,64.70
2023-05-20T01:48:06.922Z,64.70
2023-05-20T01:50:35.257Z,64.80
2023-05-20T01:53:05.073Z,65.00
2023-05-20T01:55:36.152Z,65.00
2023-05-20T01:58:05.959Z,65.10
2023-05-20T02:00:38.924Z,65.10
2023-05-20T02:03:08.853Z,65.10
2023-05-20T02:05:43.592Z,65.20
2023-05-20T02:08:11.053Z,65.30
2023-05-20T02:10:42.596Z,66.00
2023-05-20T02:13:12.681Z,65.60
2023-05-20T02:15:46.311Z,65.90
2023-05-20T02:18:21.200Z,66.00
2023-05-20T02:20:53.310Z,66.10
2023-05-20T02:23:23.943Z,66.20
2023-05-20T02:25:52.862Z,66.30
2023-05-20T02:28:20.289Z,66.30
2023-05-20T02:30:57.954Z,66.30
2023-05-20T02:33:34.643Z,66.60
2023-05-20T02:36:12.000Z,66.40
2023-05-20T02:38:53.408Z,66.50
2023-05-20T02:41:28.219Z,66.50
2023-05-20T02:44:05.749Z,66.60
2023-05-20T02:47:02.276Z,66.80
2023-05-20T02:52:31.388Z,66.90
2023-05-20T02:55:17.586Z,67.10
2023-05-20T02:57:48.539Z,67.20
2023-05-20T03:00:47.173Z,67.20
2023-05-20T03:07:55.139Z,67.40
2023-05-20T03:10:25.564Z,67.90
2023-05-20T03:13:04.358Z,68.00
2023-05-20T03:15:36.488Z,68.10
2023-05-20T03:18:38.897Z,68.20
2023-05-20T03:26:29.950Z,68.50
2023-05-20T03:29:25.384Z,68.80
2023-05-20T03:32:37.331Z,68.90
2023-05-20T03:35:12.943Z,69.00
2023-05-20T03:37:43.553Z,69.20
2023-05-20T03:40:14.537Z,69.30
2023-05-20T03:42:58.947Z,69.50
2023-05-20T03:45:35.599Z,69.70
2023-05-20T03:48:12.745Z,69.90
2023-05-20T03:50:54.996Z,69.90
2023-05-20T03:53:25.931Z,69.90
2023-05-20T03:55:56.757Z,69.90
2023-05-20T04:01:52.708Z,70.00
2023-05-20T04:04:39.260Z,70.00
2023-05-20T04:04:46.535Z,70.10
2023-05-20T04:07:31.719Z,70.20
2023-05-20T04:10:10.365Z,70.20
2023-05-20T04:12:56.820Z,70.30
2023-05-20T04:15:42.327Z,70.50
2023-05-20T04:18:14.433Z,70.70
2023-05-20T04:20:47.903Z,71.10
2023-05-20T04:23:25.913Z,71.10
2023-05-20T04:26:04.435Z,71.10
2023-05-20T04:28:35.875Z,71.10
2023-05-20T04:31:04.731Z,71.20
2023-05-20T04:33:38.390Z,71.00
2023-05-20T04:36:16.615Z,71.10
2023-05-20T04:38:45.139Z,71.00
2023-05-20T04:41:21.013Z,71.10
2023-05-20T04:43:51.136Z,71.10
2023-05-20T04:46:18.868Z,71.10
2023-05-20T04:48:48.274Z,71.10
2023-05-20T04:51:18.913Z,70.90
2023-05-20T04:53:54.418Z,70.90
2023-05-20T04:56:26.054Z,70.90
2023-05-20T04:59:04.649Z,70.80
2023-05-20T05:01:34.661Z,70.90
2023-05-20T05:04:06.373Z,70.90
2023-05-20T05:06:39.664Z,70.90
2023-05-20T05:09:25.452Z,70.90
2023-05-20T05:11:54.081Z,70.80
2023-05-20T05:14:24.869Z,70.80
2023-05-20T05:17:03.087Z,70.80
2023-05-20T05:19:34.764Z,70.80
2023-05-20T05:22:03.845Z,71.00
2023-05-20T05:24:36.964Z,70.90
2023-05-20T05:27:04.884Z,70.80
2023-05-20T05:29:32.443Z,70.90
2023-05-20T05:32:04.854Z,70.80
2023-05-20T05:34:32.778Z,70.80
2023-05-20T05:37:00.262Z,70.80
2023-05-20T05:39:38.544Z,70.70
2023-05-20T05:42:19.749Z,70.60
2023-05-20T05:44:52.504Z,70.40
2023-05-20T05:47:35.728Z,70.20
2023-05-20T05:50:07.239Z,69.90
2023-05-20T05:53:02.926Z,69.80
2023-05-20T05:55:48.891Z,69.60
2023-05-20T05:58:21.184Z,69.40
2023-05-20T06:00:55.178Z,69.20
2023-05-20T06:03:37.508Z,69.10
2023-05-20T06:10:36.553Z,68.80
2023-05-20T06:13:36.834Z,68.60
2023-05-20T06:16:10.018Z,68.40
2023-05-20T06:18:37.844Z,68.30
2023-05-20T06:37:31.252Z,67.40
2023-05-20T06:40:06.926Z,67.00
2023-05-20T06:42:40.975Z,66.80
2023-05-20T06:45:44.095Z,66.70
2023-05-20T06:48:37.015Z,66.50
2023-05-20T06:51:24.398Z,66.30
2023-05-20T06:54:22.552Z,66.10
2023-05-20T06:57:04.983Z,66.00
2023-05-20T06:59:48.242Z,65.80
2023-05-20T07:02:39.779Z,65.60
2023-05-20T07:05:19.645Z,65.40
2023-05-20T07:07:50.199Z,65.20
2023-05-20T07:10:20.731Z,65.00
2023-05-20T07:12:49.385Z,64.80
2023-05-20T07:15:19.826Z,64.60
2023-05-20T07:17:57.154Z,64.40
2023-05-20T07:20:25.913Z,64.10
2023-05-20T07:22:56.287Z,63.90
2023-05-20T07:25:36.644Z,63.70
2023-05-20T07:28:06.881Z,63.50
2023-05-20T07:30:39.354Z,63.40
2023-05-20T07:33:23.660Z,63.10
2023-05-20T07:35:56.418Z,63.00
2023-05-20T07:38:30.509Z,62.90
2023-05-20T07:41:03.889Z,62.70
2023-05-20T07:43:34.523Z,62.60
2023-05-20T07:46:13.114Z,62.30
2023-05-20T07:48:41.050Z,62.20
2023-05-20T07:51:11.685Z,62.00
2023-05-20T07:53:41.692Z,61.70
2023-05-20T07:56:11.567Z,61.50
2023-05-20T07:58:45.743Z,61.30
2023-05-20T08:01:27.308Z,61.10
2023-05-20T08:04:43.143Z,60.90
2023-05-20T08:08:17.139Z,60.60
2023-05-20T08:10:49.452Z,60.30
2023-05-20T08:13:25.774Z,60.20
2023-05-20T08:16:19.557Z,59.90
2023-05-20T08:19:01.581Z,59.40
2023-05-20T08:21:31.430Z,59.40
2023-05-20T08:28:11.296Z,59.30
2023-05-20T08:44:21.342Z,57.90
2023-05-20T08:46:52.317Z,57.80
2023-05-20T08:52:30.405Z,57.50
2023-05-20T08:55:08.772Z,57.30
2023-05-20T09:01:57.580Z,56.80
2023-05-20T09:09:07.609Z,56.30
2023-05-20T09:11:50.449Z,55.70
2023-05-20T09:14:33.292Z,55.40
2023-05-20T09:19:59.987Z,55.10
2023-05-20T09:31:55.027Z,54.60
2023-05-20T09:38:26.432Z,54.30
2023-05-20T09:41:18.561Z,54.10
2023-05-20T09:43:53.281Z,53.80
2023-05-20T09:46:35.042Z,53.50
2023-05-20T09:49:10.628Z,53.50
2023-05-20T09:51:48.230Z,53.30
2023-05-20T09:54:34.911Z,53.30
2023-05-20T09:57:07.590Z,53.10
2023-05-20T09:59:44.842Z,53.00
2023-05-20T10:04:06.159Z,52.70
2023-05-20T10:07:03.709Z,52.50
2023-05-20T10:14:17.489Z,52.20
2023-05-20T10:17:00.624Z,52.40
2023-05-20T10:24:38.742Z,52.00
2023-05-20T10:27:57.208Z,52.00
2023-05-20T10:30:25.527Z,51.90
2023-05-20T10:33:05.810Z,52.00
2023-05-20T10:35:53.885Z,51.80
2023-05-20T10:38:35.047Z,51.50
2023-05-20T10:41:14.106Z,51.40
2023-05-20T10:43:44.522Z,51.40
2023-05-20T10:46:26.788Z,51.30
2023-05-20T10:49:07.784Z,51.00
2023-05-20T10:51:39.054Z,50.70
2023-05-20T10:54:09.866Z,50.40
2023-05-20T10:56:38.605Z,50.30
2023-05-20T10:59:35.759Z,50.40
2023-05-20T11:02:04.027Z,50.40
2023-05-20T11:04:35.906Z,50.40
2023-05-20T11:07:03.470Z,50.20
2023-05-20T11:09:34.694Z,50.20
2023-05-20T11:12:07.774Z,50.20
2023-05-20T11:14:36.314Z,49.90
2023-05-20T11:17:08.205Z,49.90
2023-05-20T11:19:39.349Z,49.80
2023-05-20T11:22:32.910Z,49.40
2023-05-20T11:25:08.912Z,49.30
2023-05-20T11:28:04.612Z,49.10
2023-05-20T11:37:15.771Z,49.40
2023-05-20T11:40:07.622Z,49.60
2023-05-20T11:43:02.577Z,49.40
2023-05-20T11:45:45.141Z,49.30
2023-05-20T11:48:41.213Z,49.00
2023-05-20T11:51:34.526Z,48.60
2023-05-20T11:54:02.958Z,48.00
2023-05-20T11:56:46.054Z,48.00
2023-05-20T11:59:25.329Z,47.70
2023-05-20T12:01:55.378Z,47.80
2023-05-20T12:04:23.436Z,47.80
2023-05-20T12:07:41.689Z,47.60
2023-05-20T12:10:10.074Z,47.50
2023-05-20T12:12:50.022Z,47.40
2023-05-20T12:15:17.459Z,47.40
2023-05-20T12:21:05.025Z,47.30
2023-05-20T12:23:35.795Z,47.00
2023-05-20T12:26:33.170Z,47.10
2023-05-20T12:29:00.984Z,47.10
2023-05-20T12:32:05.960Z,47.20
2023-05-20T12:34:39.260Z,47.10
2023-05-20T12:37:23.457Z,47.10
2023-05-20T12:40:45.835Z,47.20
2023-05-20T12:43:31.367Z,47.20
2023-05-20T12:46:04.261Z,47.00
2023-05-20T12:48:47.381Z,47.30
2023-05-20T12:51:30.581Z,47.20
2023-05-20T12:54:13.152Z,47.40
2023-05-20T12:56:45.090Z,47.20
2023-05-20T12:59:40.588Z,47.00
2023-05-20T13:02:35.915Z,46.70
2023-05-20T13:05:04.396Z,46.30
2023-05-20T13:07:49.520Z,46.30
2023-05-20T13:21:04.854Z,46.20
2023-05-20T13:23:31.930Z,46.40
2023-05-20T13:30:13.244Z,46.50
2023-05-20T13:41:07.948Z,46.30
2023-05-20T13:43:45.052Z,46.20
2023-05-20T13:46:12.498Z,46.10
2023-05-20T13:48:39.734Z,46.10
2023-05-20T13:52:07.548Z,46.10
2023-05-20T13:55:24.631Z,45.80
2023-05-20T13:58:13.728Z,45.50
2023-05-20T14:01:07.305Z,45.50
2023-05-20T14:03:34.901Z,45.00
2023-05-20T14:06:04.601Z,44.60
2023-05-20T14:09:04.318Z,43.60
2023-05-20T14:11:32.848Z,43.10
2023-05-20T14:14:02.465Z,43.70
2023-05-20T14:16:53.661Z,43.20
2023-05-20T14:19:29.121Z,43.30
2023-05-20T14:21:57.983Z,44.10
2023-05-20T14:24:25.180Z,44.70
2023-05-20T14:26:56.937Z,45.10
2023-05-20T14:29:32.675Z,43.90
2023-05-20T14:32:05.571Z,42.90
2023-05-20T14:34:35.278Z,42.70
2023-05-20T14:37:08.165Z,43.30
2023-05-20T14:39:38.681Z,43.90
2023-05-20T14:42:10.829Z,44.60
2023-05-20T14:44:38.388Z,44.90
2023-05-20T14:47:08.697Z,45.10
2023-05-20T14:49:39.580Z,44.60
2023-05-20T14:52:09.458Z,43.00
2023-05-20T14:54:59.143Z,42.30
2023-05-20T14:57:26.574Z,43.00
2023-05-20T14:59:53.720Z,44.10
2023-05-20T15:02:21.124Z,44.50
2023-05-20T15:04:48.785Z,44.50
2023-05-20T15:07:16.717Z,44.30
2023-05-20T15:12:57.658Z,44.60
2023-05-20T15:15:36.015Z,45.10
2023-05-20T15:18:11.708Z,45.10
2023-05-20T15:20:47.664Z,45.00
2023-05-20T15:23:17.250Z,44.60
2023-05-20T15:25:50.646Z,44.80
2023-05-20T15:28:19.896Z,45.10
2023-05-20T15:30:51.597Z,45.30
2023-05-20T15:33:19.211Z,45.70
2023-05-20T15:35:49.176Z,45.80
2023-05-20T15:38:17.677Z,45.80
2023-05-20T15:40:45.069Z,45.70
2023-05-20T15:43:21.207Z,45.50
2023-05-20T15:45:51.058Z,44.50
2023-05-20T15:48:18.558Z,43.60
2023-05-20T15:50:45.790Z,42.70
2023-05-20T15:53:14.537Z,42.00
2023-05-20T15:55:42.995Z,41.60
2023-05-20T15:58:34.444Z,41.30
2023-05-20T16:01:04.054Z,40.50
2023-05-20T16:04:29.758Z,40.60
2023-05-20T16:08:10.392Z,41.00
2023-05-20T16:10:55.278Z,41.60
2023-05-20T16:13:56.750Z,42.20
2023-05-20T16:16:26.712Z,41.90
2023-05-20T16:18:59.235Z,41.90
2023-05-20T16:21:37.914Z,41.40
2023-05-20T16:24:08.108Z,40.50
2023-05-20T16:26:35.574Z,40.00
2023-05-20T16:29:04.836Z,39.70
2023-05-20T16:31:32.128Z,39.60
2023-05-20T16:34:00.424Z,39.30
2023-05-20T16:36:27.667Z,40.10
2023-05-20T16:38:54.694Z,40.90
2023-05-20T16:41:22.991Z,41.20
2023-05-20T16:43:50.138Z,41.70
2023-05-20T16:47:23.992Z,41.90
2023-05-20T16:49:46.701Z,40.70
2023-05-20T16:52:14.078Z,40.10
2023-05-20T16:54:41.635Z,40.60
2023-05-20T16:57:14.325Z,40.20
2023-05-20T16:59:41.896Z,39.70
2023-05-20T17:02:11.675Z,38.90
2023-05-20T17:05:01.864Z,38.90
2023-05-20T17:07:29.192Z,38.90
2023-05-20T17:09:59.082Z,38.60
2023-05-20T17:12:29.002Z,38.20
2023-05-20T17:14:56.373Z,38.20
2023-05-20T17:17:23.577Z,38.10
2023-05-20T17:19:50.989Z,38.00
2023-05-20T17:22:46.563Z,38.00
2023-05-20T17:25:31.703Z,37.90
2023-05-20T17:28:03.410Z,37.50
2023-05-20T17:30:36.073Z,37.50
2023-05-20T17:33:03.652Z,37.30
2023-05-20T17:35:31.868Z,37.30
2023-05-20T17:38:02.238Z,37.30
2023-05-20T17:40:47.046Z,37.20
2023-05-20T17:43:17.167Z,37.30
2023-05-20T17:45:44.421Z,37.30
2023-05-20T17:48:12.103Z,37.40
2023-05-20T17:50:39.917Z,37.40
2023-05-20T17:53:07.158Z,37.20
2023-05-20T17:55:36.537Z,37.10
2023-05-20T17:58:14.426Z,37.30
2023-05-20T18:00:46.897Z,37.20
2023-05-20T18:03:47.629Z,37.40
2023-05-20T18:06:40.413Z,37.60
2023-05-20T18:09:07.684Z,38.50
2023-05-20T18:11:35.307Z,39.70
2023-05-20T18:14:08.146Z,40.60
2023-05-20T18:16:35.499Z,41.60
2023-05-20T18:19:03.121Z,42.40
2023-05-20T18:21:35.109Z,43.10
2023-05-20T18:27:32.967Z,44.20
2023-05-20T18:30:11.659Z,44.70
2023-05-20T18:32:39.193Z,44.90
2023-05-20T18:35:07.238Z,45.30
2023-05-20T18:37:37.982Z,45.50
2023-05-20T18:40:06.617Z,45.80
2023-05-20T18:42:37.094Z,46.10
2023-05-20T18:45:04.700Z,46.30
2023-05-20T18:47:33.350Z,46.50
2023-05-20T18:50:03.909Z,46.70
2023-05-20T18:52:32.286Z,46.90
2023-05-20T18:58:06.112Z,47.30
2023-05-20T19:00:33.585Z,47.50
2023-05-20T19:03:01.070Z,47.70
2023-05-20T19:05:28.580Z,48.00
2023-05-20T19:07:55.877Z,48.10
2023-05-20T19:10:29.565Z,48.30
2023-05-20T19:12:59.319Z,48.50
2023-05-20T19:15:34.614Z,48.60
2023-05-20T19:18:04.043Z,48.80
2023-05-20T19:20:47.664Z,48.90
2023-05-20T19:23:18.044Z,49.00
2023-05-20T19:25:45.810Z,49.20
2023-05-20T19:28:25.259Z,49.40
2023-05-20T19:30:53.803Z,49.60
2023-05-20T19:33:21.436Z,49.70
2023-05-20T19:35:48.744Z,49.80
2023-05-20T19:38:16.428Z,49.90
2023-05-20T19:40:47.837Z,50.00
2023-05-20T19:43:15.318Z,50.10
2023-05-20T19:45:42.729Z,50.30
2023-05-20T19:48:10.111Z,50.30
2023-05-20T19:50:37.609Z,50.50
2023-05-20T19:53:07.475Z,50.70
2023-05-20T19:55:43.814Z,50.80
2023-05-20T19:58:13.454Z,50.80
2023-05-20T20:00:40.787Z,51.00
2023-05-20T20:03:07.907Z,51.10
2023-05-20T20:05:35.552Z,51.20
2023-05-20T20:08:03.063Z,51.20
2023-05-20T20:10:30.972Z,51.40
2023-05-20T20:12:58.060Z,51.50
2023-05-20T20:15:25.817Z,51.60
2023-05-20T20:17:53.251Z,51.70
2023-05-20T20:20:25.047Z,51.80
2023-05-20T20:22:54.732Z,51.80
2023-05-20T20:25:23.486Z,51.90
2023-05-20T20:27:52.097Z,52.10
2023-05-20T20:30:21.962Z,52.20
2023-05-20T20:33:24.187Z,52.40
2023-05-20T20:36:59.016Z,52.60
2023-05-20T20:40:26.481Z,52.90
2023-05-20T20:42:55.094Z,53.20
2023-05-20T20:45:24.810Z,53.30
2023-05-20T20:47:54.948Z,53.50
2023-05-20T20:50:38.818Z,53.80
2023-05-20T20:53:23.190Z,53.80
2023-05-20T20:56:06.414Z,54.00
2023-05-20T20:58:45.113Z,54.20
2023-05-20T21:01:12.360Z,54.40
2023-05-20T21:03:44.795Z,54.50
2023-05-20T21:06:16.014Z,54.60
2023-05-20T21:08:43.420Z,54.70
2023-05-20T21:11:13.236Z,54.90
2023-05-20T21:13:43.498Z,55.00
2023-05-20T21:16:14.041Z,55.20
2023-05-20T21:18:41.518Z,55.20
2023-05-20T21:21:12.163Z,55.20
2023-05-20T21:23:39.629Z,55.30
2023-05-20T21:26:10.874Z,55.60
2023-05-20T21:28:43.009Z,55.70
2023-05-20T21:31:10.225Z,55.80
2023-05-20T21:33:39.182Z,56.10
2023-05-20T21:36:22.425Z,56.20
2023-05-20T21:38:49.601Z,56.50
2023-05-20T21:41:16.913Z,56.70
2023-05-20T21:43:44.043Z,57.00
2023-05-20T21:46:11.735Z,57.20
2023-05-20T21:48:38.990Z,57.30
2023-05-20T21:51:06.088Z,57.40
2023-05-20T21:53:33.167Z,57.70
2023-05-20T21:56:00.316Z,57.90
2023-05-20T21:58:27.672Z,57.90
2023-05-20T22:00:55.131Z,58.10
2023-05-20T22:03:22.628Z,58.30
2023-05-20T22:05:50.939Z,58.40
2023-05-20T22:08:19.181Z,58.60
2023-05-20T22:10:47.030Z,58.70
2023-05-20T22:13:14.357Z,58.80
2023-05-20T22:15:50.372Z,58.90
2023-05-20T22:18:17.832Z,59.10
2023-05-20T22:20:47.289Z,59.30
2023-05-20T22:23:14.420Z,59.30
2023-05-20T22:25:41.517Z,59.70
2023-05-20T22:28:08.902Z,59.70
2023-05-20T22:30:39.000Z,59.70
2023-05-20T22:33:06.210Z,60.00
2023-05-20T22:35:33.373Z,60.10
2023-05-20T22:38:00.778Z,60.10
2023-05-20T22:40:28.016Z,60.30
2023-05-20T22:42:55.373Z,60.40
2023-05-20T22:45:22.453Z,60.50
2023-05-20T22:47:52.195Z,60.60
2023-05-20T22:50:19.291Z,60.80
2023-05-20T22:52:46.371Z,60.90
2023-05-20T22:55:27.431Z,61.10
2023-05-20T22:58:20.574Z,61.20
2023-05-20T23:01:03.757Z,61.50
2023-05-20T23:03:31.448Z,61.50
2023-05-20T23:06:36.628Z,61.60
2023-05-20T23:09:16.481Z,61.60
2023-05-20T23:11:46.032Z,61.70
2023-05-20T23:14:30.694Z,61.90
2023-05-20T23:21:24.436Z,62.30
2023-05-20T23:34:09.896Z,62.90
2023-05-20T23:40:00.181Z,63.10
2023-05-20T23:42:59.421Z,63.30
2023-05-20T23:45:32.041Z,63.30
2023-05-20T23:48:20.048Z,63.30
2023-05-20T23:51:22.124Z,63.40
2023-05-20T23:54:50.012Z,63.40
2023-05-20T23:57:55.204Z,63.30
